Time;durP1;ratioP1;P1;durP2;ratioP2;P2;SDS_P1;SDS_P2;PMS_P1;PMS_P2;Temp;Humidity;BMP_temperature;BMP_pressure;BME280_temperature;BME280_humidity;BME280_pressure;Samples;Min_cycle;Max_cycle;Signal;HPM_P1;HPM_P2
2023/05/25 00:01:42;;;;;;;15.38;6.43;;;10.50;99.90;;;;;;5025568;28;20057;-46
2023/05/25 00:04:09;;;;;;;17.85;6.97;;;9.80;99.90;;;;;;5010398;28;20045;-53
2023/05/25 00:06:40;;;;;;;18.52;7.20;;;9.80;99.90;;;;;;5027292;28;20053;-51
2023/05/25 00:09:06;;;;;;;20.45;7.15;;;9.80;99.90;;;;;;5028230;28;20053;-53
2023/05/25 00:11:32;;;;;;;19.13;7.43;;;9.70;99.90;;;;;;5010347;28;20066;-53
2023/05/25 00:13:57;;;;;;;18.90;7.22;;;9.80;99.90;;;;;;5027599;28;20064;-53
2023/05/25 00:16:23;;;;;;;19.00;6.82;;;9.70;99.90;;;;;;5027188;28;20507;-52
2023/05/25 00:18:49;;;;;;;15.48;6.20;;;9.80;99.90;;;;;;5027886;28;20424;-53
2023/05/25 00:21:14;;;;;;;17.27;7.05;;;9.70;99.90;;;;;;5027550;28;20099;-50
2023/05/25 00:23:41;;;;;;;17.35;6.53;;;9.70;99.90;;;;;;5027981;28;20041;-51
2023/05/25 00:26:07;;;;;;;19.23;7.57;;;9.70;99.90;;;;;;5027620;28;20088;-52
2023/05/25 00:28:32;;;;;;;18.05;7.30;;;9.70;99.90;;;;;;5009634;28;20046;-52
2023/05/25 00:30:58;;;;;;;18.30;7.32;;;9.70;99.90;;;;;;5026995;28;20095;-49
2023/05/25 00:33:24;;;;;;;20.15;6.97;;;9.70;99.90;;;;;;5026573;28;20037;-53
2023/05/25 00:35:51;;;;;;;15.30;6.55;;;9.70;99.90;;;;;;5027632;28;20050;-54
2023/05/25 00:38:17;;;;;;;16.33;6.80;;;9.70;99.90;;;;;;5027169;28;20258;-54
2023/05/25 00:40:44;;;;;;;15.55;6.72;;;9.70;99.90;;;;;;5027555;28;20057;-53
2023/05/25 00:43:10;;;;;;;16.92;7.18;;;9.70;99.90;;;;;;5027355;28;20563;-52
2023/05/25 00:45:36;;;;;;;17.77;7.07;;;9.80;99.90;;;;;;5027116;28;20053;-53
2023/05/25 00:48:03;;;;;;;18.50;7.53;;;9.80;99.90;;;;;;5026302;28;20457;-54
2023/05/25 00:50:43;;;;;;;16.52;7.35;;;9.70;99.90;;;;;;5027497;28;20081;-51
2023/05/25 00:53:10;;;;;;;16.48;7.07;;;9.70;99.90;;;;;;5026792;28;20529;-53
2023/05/25 00:55:49;;;;;;;16.38;7.20;;;9.70;99.90;;;;;;5027124;28;20049;-52
2023/05/25 00:58:19;;;;;;;18.70;7.22;;;9.60;99.90;;;;;;4993251;28;20041;-50
2023/05/25 01:00:48;;;;;;;16.05;7.18;;;9.50;99.90;;;;;;5027211;28;20057;-53
2023/05/25 01:03:20;;;;;;;16.33;7.60;;;9.50;99.90;;;;;;5026888;28;20041;-54
2023/05/25 01:05:47;;;;;;;19.67;7.32;;;9.50;99.90;;;;;;5026716;28;20060;-53
2023/05/25 01:08:15;;;;;;;19.63;7.45;;;9.40;99.90;;;;;;5027063;28;20053;-48
2023/05/25 01:10:44;;;;;;;16.17;7.28;;;9.40;99.90;;;;;;5027148;28;20048;-52
2023/05/25 01:13:13;;;;;;;17.02;7.93;;;9.50;99.90;;;;;;5096354;22;20054;-58
2023/05/25 01:15:39;;;;;;;17.67;7.68;;;9.30;99.90;;;;;;5008679;28;20136;-51
2023/05/25 01:18:05;;;;;;;17.85;7.63;;;9.30;99.90;;;;;;4990429;28;20030;-56
2023/05/25 01:20:30;;;;;;;17.13;8.55;;;9.30;99.90;;;;;;4989692;28;20057;-54
2023/05/25 01:23:09;;;;;;;15.07;7.45;;;9.30;99.90;;;;;;4988781;28;20049;-55
2023/05/25 01:25:49;;;;;;;18.15;7.75;;;9.30;99.90;;;;;;4988705;28;20054;-54
2023/05/25 01:28:24;;;;;;;18.30;7.80;;;9.30;99.90;;;;;;4989196;28;20081;-56
2023/05/25 01:30:51;;;;;;;17.45;7.65;;;9.20;99.90;;;;;;4989829;28;20120;-57
2023/05/25 01:33:20;;;;;;;16.77;7.55;;;9.20;99.90;;;;;;4988539;28;20648;-55
2023/05/25 01:35:47;;;;;;;17.05;7.53;;;9.20;99.90;;;;;;4989424;28;20096;-57
2023/05/25 01:38:13;;;;;;;22.17;7.82;;;9.20;99.90;;;;;;4989137;28;20109;-57
2023/05/25 01:40:38;;;;;;;17.05;7.75;;;9.20;99.90;;;;;;4971677;28;20612;-57
2023/05/25 01:43:04;;;;;;;15.52;7.13;;;10.60;99.90;;;;;;4988641;28;20050;-55
2023/05/25 01:45:31;;;;;;;16.17;7.78;;;9.20;99.90;;;;;;4971597;28;20042;-57
2023/05/25 01:48:18;;;;;;;16.67;7.70;;;9.20;99.90;;;;;;4987865;28;20488;-55
2023/05/25 01:50:44;;;;;;;18.88;7.63;;;9.10;99.90;;;;;;4988707;28;20069;-57
2023/05/25 01:53:14;;;;;;;17.83;7.95;;;9.40;99.90;;;;;;4988856;28;20082;-54
2023/05/25 01:55:46;;;;;;;16.17;7.60;;;9.20;99.90;;;;;;4988883;28;20103;-58
2023/05/25 01:58:15;;;;;;;18.17;8.00;;;9.10;99.90;;;;;;4988894;28;20141;-57
2023/05/25 02:00:42;;;;;;;17.55;7.63;;;9.10;99.90;;;;;;4988635;28;20050;-57
2023/05/25 02:03:08;;;;;;;15.07;7.72;;;9.10;99.90;;;;;;4987194;28;20039;-56
2023/05/25 02:05:34;;;;;;;15.07;7.65;;;9.10;99.90;;;;;;4988317;28;20046;-55
2023/05/25 02:08:00;;;;;;;16.38;7.60;;;9.10;99.90;;;;;;4988720;28;20049;-56
2023/05/25 02:10:26;;;;;;;16.38;7.20;;;9.10;99.90;;;;;;4971194;28;20570;-57
2023/05/25 02:12:51;;;;;;;20.88;8.15;;;9.00;99.90;;;;;;4987983;28;20480;-56
2023/05/25 02:15:17;;;;;;;13.65;7.65;;;9.00;99.90;;;;;;4987349;28;20065;-58
2023/05/25 02:17:43;;;;;;;16.67;7.97;;;8.90;99.90;;;;;;4987379;28;20047;-55
2023/05/25 02:20:10;;;;;;;15.68;7.90;;;9.10;99.90;;;;;;4987738;28;20074;-57
2023/05/25 02:22:36;;;;;;;18.15;8.05;;;8.90;99.90;;;;;;4970723;28;20046;-54
2023/05/25 02:25:02;;;;;;;15.23;7.60;;;8.90;99.90;;;;;;4987654;28;20370;-56
2023/05/25 02:27:28;;;;;;;14.13;8.20;;;8.90;99.90;;;;;;4987886;28;20153;-57
2023/05/25 02:29:53;;;;;;;15.35;8.02;;;8.80;99.90;;;;;;4988304;28;20117;-55
2023/05/25 02:32:20;;;;;;;18.00;7.78;;;8.80;99.90;;;;;;4987041;28;20050;-56
2023/05/25 02:34:46;;;;;;;18.08;8.25;;;8.80;99.90;;;;;;4988059;28;20050;-56
2023/05/25 02:37:12;;;;;;;18.90;8.27;;;8.80;99.90;;;;;;4987726;28;20239;-57
2023/05/25 02:39:38;;;;;;;15.43;8.02;;;8.80;99.90;;;;;;4987845;28;20082;-57
2023/05/25 02:42:04;;;;;;;16.35;7.55;;;8.80;99.90;;;;;;4987110;28;20051;-58
2023/05/25 02:44:30;;;;;;;14.93;8.18;;;8.80;99.90;;;;;;4986902;28;20056;-55
2023/05/25 02:46:56;;;;;;;18.70;8.45;;;8.80;99.90;;;;;;4986612;28;20074;-56
2023/05/25 02:49:21;;;;;;;14.93;7.72;;;8.80;99.90;;;;;;4988144;28;20156;-54
2023/05/25 02:51:47;;;;;;;18.55;8.65;;;8.70;99.90;;;;;;4987661;28;20046;-55
2023/05/25 02:54:12;;;;;;;18.80;8.65;;;8.70;99.90;;;;;;4987621;28;20422;-52
2023/05/25 02:56:38;;;;;;;18.42;8.60;;;8.60;99.90;;;;;;4987892;28;20069;-56
2023/05/25 02:59:04;;;;;;;17.33;8.43;;;8.60;99.90;;;;;;4987104;28;20077;-56
2023/05/25 03:01:30;;;;;;;16.00;8.52;;;8.50;99.90;;;;;;4986397;28;20046;-54
2023/05/25 03:03:56;;;;;;;17.75;8.45;;;8.50;99.90;;;;;;4987595;28;20046;-55
2023/05/25 03:06:21;;;;;;;16.08;8.02;;;8.50;99.90;;;;;;4987889;28;20069;-53
2023/05/25 03:08:48;;;;;;;18.98;8.77;;;8.60;99.90;;;;;;4987192;28;20488;-50
2023/05/25 03:11:13;;;;;;;13.85;7.75;;;8.60;99.90;;;;;;4987465;28;20076;-55
2023/05/25 03:13:40;;;;;;;15.38;8.38;;;8.60;99.90;;;;;;4987004;28;20480;-55
2023/05/25 03:16:06;;;;;;;21.25;8.75;;;8.50;99.90;;;;;;4986527;28;20050;-55
2023/05/25 03:18:31;;;;;;;16.98;8.30;;;8.50;99.90;;;;;;4986841;28;20049;-52
2023/05/25 03:20:57;;;;;;;17.83;8.18;;;8.50;99.90;;;;;;4986573;28;20064;-56
2023/05/25 03:23:22;;;;;;;18.38;8.82;;;8.60;99.90;;;;;;4986170;28;20129;-57
2023/05/25 03:25:49;;;;;;;17.05;8.00;;;8.60;99.90;;;;;;4968502;28;20085;-56
2023/05/25 03:28:15;;;;;;;16.77;8.63;;;8.70;99.90;;;;;;4985793;28;20046;-52
2023/05/25 03:30:40;;;;;;;15.70;8.65;;;8.70;99.90;;;;;;4986653;28;20495;-56
2023/05/25 03:33:06;;;;;;;16.33;8.50;;;8.70;99.90;;;;;;4985822;28;20078;-56
2023/05/25 03:35:31;;;;;;;15.20;8.30;;;8.70;99.90;;;;;;4986195;28;20692;-55
2023/05/25 03:37:57;;;;;;;14.98;8.40;;;8.70;99.90;;;;;;4969621;28;20070;-56
2023/05/25 03:40:23;;;;;;;21.40;9.07;;;8.70;99.90;;;;;;4987070;28;20133;-53
2023/05/25 03:42:48;;;;;;;19.00;8.65;;;8.70;99.90;;;;;;4986323;28;20053;-55
2023/05/25 03:45:14;;;;;;;14.18;8.30;;;8.70;99.90;;;;;;4986762;28;20054;-56
2023/05/25 03:47:40;;;;;;;15.10;8.40;;;8.70;99.90;;;;;;4985808;28;20090;-56
2023/05/25 03:50:06;;;;;;;17.50;8.77;;;8.80;99.90;;;;;;4985013;28;20121;-53
2023/05/25 03:52:32;;;;;;;16.50;8.85;;;8.80;99.90;;;;;;4984561;28;20081;-54
2023/05/25 03:55:00;;;;;;;20.65;9.43;;;8.80;99.90;;;;;;4984964;28;20035;-49
2023/05/25 03:57:26;;;;;;;16.90;9.43;;;8.90;99.90;;;;;;4984946;28;20042;-53
2023/05/25 03:59:52;;;;;;;16.40;9.45;;;9.10;99.90;;;;;;4984638;28;20057;-56
2023/05/25 04:02:17;;;;;;;19.42;9.80;;;9.00;99.90;;;;;;4984588;28;20446;-55
2023/05/25 04:04:44;;;;;;;16.33;9.15;;;8.90;99.90;;;;;;4984943;28;20065;-54
2023/05/25 04:07:09;;;;;;;15.38;9.18;;;9.00;99.90;;;;;;4984234;28;20111;-55
2023/05/25 04:09:35;;;;;;;23.25;9.70;;;9.00;99.90;;;;;;4985001;28;20133;-56
2023/05/25 04:12:01;;;;;;;17.45;9.07;;;9.00;99.90;;;;;;4984614;28;20046;-51
2023/05/25 04:14:27;;;;;;;23.02;9.35;;;9.20;99.90;;;;;;4985039;28;20042;-56
2023/05/25 04:16:52;;;;;;;20.88;8.95;;;9.00;99.90;;;;;;4983981;28;20069;-51
2023/05/25 04:19:18;;;;;;;18.27;9.05;;;9.00;99.90;;;;;;4985324;28;20319;-56
2023/05/25 04:21:43;;;;;;;18.30;9.52;;;9.00;99.90;;;;;;4984919;28;20506;-55
2023/05/25 04:24:09;;;;;;;19.85;10.27;;;9.00;99.90;;;;;;4983830;28;20050;-54
2023/05/25 04:26:34;;;;;;;17.95;9.48;;;9.00;99.90;;;;;;4984687;28;20088;-55
2023/05/25 04:29:01;;;;;;;21.67;9.48;;;9.00;99.90;;;;;;4984771;28;20050;-54
2023/05/25 04:31:27;;;;;;;21.00;9.95;;;9.00;99.90;;;;;;4984373;28;20043;-53
2023/05/25 04:33:54;;;;;;;19.17;10.25;;;9.00;99.90;;;;;;4984218;28;20042;-51
2023/05/25 04:36:21;;;;;;;17.83;9.52;;;9.00;99.90;;;;;;4985061;28;20282;-56
2023/05/25 04:38:47;;;;;;;19.58;10.70;;;9.00;99.90;;;;;;4984622;28;20054;-58
2023/05/25 04:41:13;;;;;;;20.80;10.48;;;9.10;99.90;;;;;;4983936;28;20064;-54
2023/05/25 04:43:39;;;;;;;20.33;10.20;;;9.20;99.90;;;;;;4967194;28;20615;-55
2023/05/25 04:46:06;;;;;;;18.30;10.85;;;9.70;99.90;;;;;;4966317;28;20050;-56
2023/05/25 04:48:33;;;;;;;17.13;9.10;;;10.50;99.90;;;;;;4986871;28;20125;-56
2023/05/25 04:51:01;;;;;;;19.58;8.77;;;11.40;99.90;;;;;;4988603;28;20046;-54
2023/05/25 04:53:28;;;;;;;17.52;8.27;;;11.90;99.90;;;;;;4988347;28;20412;-53
2023/05/25 04:55:54;;;;;;;13.27;8.00;;;12.30;99.90;;;;;;4988018;28;20086;-49
2023/05/25 04:58:21;;;;;;;13.80;7.07;;;12.80;99.90;;;;;;4988042;28;20097;-55
2023/05/25 05:00:46;;;;;;;14.23;7.30;;;13.30;99.90;;;;;;4987257;28;20046;-56
2023/05/25 05:03:12;;;;;;;20.63;7.70;;;13.60;99.90;;;;;;4988106;28;20133;-54
2023/05/25 05:05:38;;;;;;;13.98;7.45;;;14.30;99.90;;;;;;4987232;28;20045;-55
2023/05/25 05:08:03;;;;;;;13.02;7.40;;;14.60;99.90;;;;;;4987730;28;20042;-55
2023/05/25 05:10:29;;;;;;;14.27;7.30;;;14.30;99.90;;;;;;4988018;28;20039;-55
2023/05/25 05:12:55;;;;;;;15.73;7.05;;;14.40;99.90;;;;;;4987213;28;20089;-56
2023/05/25 05:15:20;;;;;;;14.00;7.50;;;14.60;99.90;;;;;;4987537;28;20085;-55
2023/05/25 05:17:46;;;;;;;14.85;7.07;;;14.80;99.90;;;;;;4987147;28;20041;-54
2023/05/25 05:20:12;;;;;;;15.10;6.95;;;15.10;99.90;;;;;;4987473;28;20030;-53
2023/05/25 05:22:38;;;;;;;15.10;6.95;;;15.20;99.90;;;;;;4987194;28;20046;-55
2023/05/25 05:25:03;;;;;;;12.75;6.70;;;14.80;99.90;;;;;;4970119;28;20033;-49
2023/05/25 05:27:29;;;;;;;13.75;6.80;;;14.50;99.90;;;;;;4987814;28;20133;-55
2023/05/25 05:29:55;;;;;;;13.82;6.97;;;14.20;99.90;;;;;;4987251;28;20066;-53
2023/05/25 05:32:20;;;;;;;13.07;6.93;;;14.00;99.90;;;;;;4969194;28;20444;-53
2023/05/25 05:34:46;;;;;;;14.75;7.35;;;13.90;99.90;;;;;;4987582;28;20042;-54
2023/05/25 05:37:12;;;;;;;16.13;7.20;;;13.70;99.90;;;;;;4987277;28;20038;-53
2023/05/25 05:39:38;;;;;;;19.00;7.40;;;13.70;99.90;;;;;;4986634;28;20042;-54
2023/05/25 05:42:03;;;;;;;15.73;6.78;;;13.60;99.90;;;;;;4987340;28;20393;-52
2023/05/25 05:44:29;;;;;;;17.65;6.65;;;13.40;99.90;;;;;;5002275;28;20042;-54
2023/05/25 05:46:58;;;;;;;16.73;6.63;;;13.40;99.90;;;;;;5005607;28;20042;-55
2023/05/25 05:49:28;;;;;;;16.70;6.90;;;13.50;99.90;;;;;;5006615;28;20069;-54
2023/05/25 05:51:53;;;;;;;20.42;6.80;;;13.40;99.90;;;;;;5006473;28;20049;-54
2023/05/25 05:54:19;;;;;;;16.88;6.57;;;13.50;99.90;;;;;;5006130;28;20042;-53
2023/05/25 05:56:45;;;;;;;14.13;5.18;;;13.70;99.90;;;;;;5006512;28;20044;-53
2023/05/25 05:59:11;;;;;;;11.27;4.07;;;13.50;99.90;;;;;;5005636;28;20128;-54
2023/05/25 06:01:36;;;;;;;13.88;4.28;;;13.60;99.90;;;;;;5005466;28;20045;-51
2023/05/25 06:04:04;;;;;;;16.13;4.78;;;13.70;99.90;;;;;;5006155;28;20467;-54
2023/05/25 06:06:33;;;;;;;16.92;4.45;;;13.90;99.90;;;;;;5006397;28;20611;-55
2023/05/25 06:09:04;;;;;;;10.48;4.05;;;14.00;99.90;;;;;;5006259;28;20492;-55
2023/05/25 06:11:30;;;;;;;16.33;4.78;;;14.00;99.90;;;;;;4988882;28;20050;-48
2023/05/25 06:13:55;;;;;;;16.90;4.43;;;14.00;99.90;;;;;;5006145;28;20068;-55
2023/05/25 06:16:21;;;;;;;11.77;4.45;;;13.90;99.90;;;;;;4987765;28;20054;-53
2023/05/25 06:18:46;;;;;;;13.80;4.53;;;13.80;99.90;;;;;;4988309;28;20129;-55
2023/05/25 06:21:12;;;;;;;14.77;4.20;;;14.00;99.90;;;;;;5005988;28;20124;-52
2023/05/25 06:23:37;;;;;;;15.18;4.45;;;13.90;99.90;;;;;;4988153;28;20477;-51
2023/05/25 06:26:04;;;;;;;12.93;4.03;;;13.90;99.90;;;;;;5005973;28;20388;-55
2023/05/25 06:28:30;;;;;;;13.05;4.30;;;13.70;99.90;;;;;;5006094;28;20278;-52
2023/05/25 06:30:56;;;;;;;17.45;4.63;;;13.50;99.90;;;;;;5005129;28;20045;-49
2023/05/25 06:33:22;;;;;;;12.90;4.20;;;13.60;99.90;;;;;;5006036;28;20058;-56
2023/05/25 06:35:47;;;;;;;18.73;4.50;;;13.30;99.90;;;;;;4987994;28;20649;-56
2023/05/25 06:38:13;;;;;;;16.13;4.75;;;13.10;99.90;;;;;;4988268;28;20137;-55
2023/05/25 06:40:39;;;;;;;18.08;4.55;;;13.20;99.90;;;;;;5005764;28;20046;-55
2023/05/25 06:43:04;;;;;;;17.65;4.82;;;13.30;99.90;;;;;;5005248;28;20489;-50
2023/05/25 06:45:30;;;;;;;18.67;5.18;;;13.70;99.90;;;;;;5005319;28;20045;-56
2023/05/25 06:47:56;;;;;;;22.08;4.75;;;13.40;99.90;;;;;;5005490;28;20045;-53
2023/05/25 06:50:21;;;;;;;18.77;4.97;;;13.40;99.90;;;;;;5005363;28;20121;-54
2023/05/25 06:52:47;;;;;;;20.65;5.45;;;13.50;99.90;;;;;;5005289;28;20132;-57
2023/05/25 06:55:13;;;;;;;22.33;5.85;;;13.50;99.90;;;;;;5005828;28;20034;-55
2023/05/25 06:57:39;;;;;;;20.38;4.95;;;13.60;99.90;;;;;;5005433;28;20072;-58
2023/05/25 07:00:06;;;;;;;17.90;4.65;;;14.00;99.90;;;;;;5005027;28;20108;-57
2023/05/25 07:02:33;;;;;;;22.40;6.07;;;14.60;99.90;;;;;;4987291;28;20145;-58
2023/05/25 07:05:00;;;;;;;18.85;4.40;;;15.20;99.90;;;;;;5005342;28;20050;-57
2023/05/25 07:07:25;;;;;;;21.10;4.53;;;15.80;99.90;;;;;;5004481;28;20417;-58
2023/05/25 07:09:51;;;;;;;19.38;4.60;;;16.30;99.90;;;;;;5004907;28;20133;-58
2023/05/25 07:12:17;;;;;;;14.65;4.20;;;17.10;99.90;;;;;;5005196;28;20161;-57
2023/05/25 07:14:46;;;;;;;16.83;4.43;;;17.40;99.90;;;;;;5004839;28;20041;-57
2023/05/25 07:17:12;;;;;;;21.23;5.05;;;17.70;99.90;;;;;;5005371;28;20089;-58
2023/05/25 07:19:39;;;;;;;16.42;4.65;;;18.00;99.90;;;;;;5007281;28;20483;-59
2023/05/25 07:22:04;;;;;;;19.42;5.30;;;18.20;99.90;;;;;;5006606;28;20493;-58
2023/05/25 07:24:30;;;;;;;18.48;4.50;;;18.60;99.90;;;;;;5004279;28;20053;-58
2023/05/25 07:26:56;;;;;;;14.75;4.72;;;18.70;98.70;;;;;;5004722;28;20038;-59
2023/05/25 07:29:22;;;;;;;13.07;4.20;;;18.80;98.60;;;;;;5005028;28;20095;-58
2023/05/25 07:31:48;;;;;;;14.98;3.90;;;19.10;98.00;;;;;;5003567;28;20042;-58
2023/05/25 07:34:14;;;;;;;15.93;4.10;;;19.50;98.20;;;;;;5004020;28;20050;-59
2023/05/25 07:36:39;;;;;;;17.52;4.07;;;20.00;97.50;;;;;;5004390;28;20049;-59
2023/05/25 07:39:05;;;;;;;14.65;4.22;;;20.30;96.70;;;;;;5004765;28;20054;-58
2023/05/25 07:41:32;;;;;;;15.38;3.97;;;20.20;95.80;;;;;;5003838;28;20049;-57
2023/05/25 07:43:58;;;;;;;14.50;4.13;;;20.20;95.70;;;;;;5004481;28;20083;-58
2023/05/25 07:46:24;;;;;;;14.02;3.92;;;20.10;95.80;;;;;;4986572;28;20054;-58
2023/05/25 07:48:50;;;;;;;18.42;4.50;;;20.00;96.20;;;;;;5004192;28;20176;-58
2023/05/25 07:51:16;;;;;;;16.80;3.95;;;20.20;95.70;;;;;;5004932;28;20048;-59
2023/05/25 07:53:41;;;;;;;15.23;3.95;;;20.20;95.40;;;;;;5004833;28;20357;-58
2023/05/25 07:56:07;;;;;;;17.33;4.47;;;20.00;95.50;;;;;;5005140;28;20053;-59
2023/05/25 07:58:33;;;;;;;24.10;4.85;;;19.40;95.30;;;;;;5004122;28;20042;-57
2023/05/25 08:00:58;;;;;;;19.08;4.28;;;18.90;95.90;;;;;;5003895;28;20058;-57
2023/05/25 08:03:24;;;;;;;17.25;5.18;;;18.30;96.50;;;;;;5004423;28;20055;-58
2023/05/25 08:05:50;;;;;;;18.30;4.63;;;17.80;96.80;;;;;;4986357;28;20080;-58
2023/05/25 08:08:16;;;;;;;19.67;5.13;;;17.50;97.50;;;;;;5004339;28;20056;-58
2023/05/25 08:10:43;;;;;;;18.73;4.20;;;17.70;97.80;;;;;;5004553;28;20038;-59
2023/05/25 08:13:08;;;;;;;17.83;3.95;;;18.10;97.50;;;;;;5004202;28;20065;-58
2023/05/25 08:15:34;;;;;;;15.13;3.85;;;18.50;97.10;;;;;;5003234;28;20513;-58
2023/05/25 08:18:00;;;;;;;16.58;4.47;;;18.70;96.90;;;;;;5004178;28;20048;-58
2023/05/25 08:20:25;;;;;;;17.30;3.92;;;18.50;96.60;;;;;;5004397;28;20048;-58
2023/05/25 08:22:52;;;;;;;14.07;4.20;;;18.20;97.10;;;;;;5005907;28;20034;-58
2023/05/25 08:25:18;;;;;;;21.00;5.25;;;18.10;97.40;;;;;;5008005;28;20076;-58
2023/05/25 08:27:44;;;;;;;16.05;3.88;;;18.20;97.50;;;;;;5008083;28;20396;-59
2023/05/25 08:30:10;;;;;;;18.00;4.22;;;18.20;97.30;;;;;;5007129;28;20038;-57
2023/05/25 08:32:35;;;;;;;20.02;5.10;;;18.00;96.70;;;;;;5007800;28;20045;-57
2023/05/25 08:35:02;;;;;;;15.73;4.85;;;18.10;97.30;;;;;;5007973;28;20496;-57
2023/05/25 08:37:28;;;;;;;19.58;5.82;;;18.50;96.80;;;;;;4990088;28;20034;-58
2023/05/25 08:39:53;;;;;;;15.35;4.53;;;18.80;96.20;;;;;;5007405;28;20045;-58
2023/05/25 08:42:19;;;;;;;19.60;5.18;;;18.70;95.80;;;;;;4991645;28;20050;-59
2023/05/25 08:44:45;;;;;;;16.30;4.32;;;18.40;95.90;;;;;;5009250;28;20049;-55
2023/05/25 08:47:11;;;;;;;18.73;4.70;;;18.00;96.00;;;;;;4990353;28;20053;-56
2023/05/25 08:49:38;;;;;;;22.10;4.50;;;17.90;96.60;;;;;;5008076;28;20079;-55
2023/05/25 08:52:04;;;;;;;15.85;4.43;;;17.60;96.70;;;;;;5007682;28;20381;-50
2023/05/25 08:54:42;;;;;;;18.27;4.65;;;17.60;96.60;;;;;;5007381;28;20120;-55
2023/05/25 08:57:19;;;;;;;15.85;4.00;;;17.40;95.80;;;;;;5007713;28;20069;-55
2023/05/25 09:00:02;;;;;;;14.90;4.43;;;17.50;95.90;;;;;;5007123;28;20320;-56
2023/05/25 09:02:46;;;;;;;12.48;3.60;;;17.60;96.10;;;;;;5007609;28;20054;-55
2023/05/25 09:05:12;;;;;;;15.30;4.15;;;17.70;96.00;;;;;;5007502;28;20441;-55
2023/05/25 09:07:40;;;;;;;15.82;4.07;;;17.60;96.50;;;;;;5007919;28;20056;-57
2023/05/25 09:10:07;;;;;;;17.05;4.13;;;17.60;96.40;;;;;;5007458;28;20041;-56
2023/05/25 09:12:35;;;;;;;15.82;4.20;;;17.60;96.20;;;;;;5006915;28;20061;-55
2023/05/25 09:15:00;;;;;;;13.20;4.10;;;17.50;96.20;;;;;;5006767;28;20046;-57
2023/05/25 09:17:26;;;;;;;16.55;3.97;;;17.40;96.30;;;;;;5007526;28;20049;-55
2023/05/25 09:19:51;;;;;;;17.08;4.18;;;17.40;96.30;;;;;;5007012;28;20042;-57
2023/05/25 09:22:17;;;;;;;17.42;3.72;;;17.40;96.10;;;;;;5006486;28;20084;-55
2023/05/25 09:24:43;;;;;;;14.32;3.92;;;17.50;96.50;;;;;;5007116;28;20052;-57
2023/05/25 09:27:16;;;;;;;15.52;4.15;;;17.90;96.30;;;;;;5007170;28;20480;-57
2023/05/25 09:29:42;;;;;;;16.33;4.15;;;18.20;95.70;;;;;;5007208;28;20046;-56
2023/05/25 09:32:07;;;;;;;15.10;5.20;;;18.30;96.00;;;;;;5006092;28;20467;-56
2023/05/25 09:34:33;;;;;;;17.98;4.35;;;18.50;96.00;;;;;;5007116;28;20126;-56
2023/05/25 09:37:01;;;;;;;15.68;4.25;;;18.50;95.80;;;;;;5006460;28;20133;-54
2023/05/25 09:39:27;;;;;;;12.70;3.65;;;18.50;95.50;;;;;;4989422;28;20040;-58
2023/05/25 09:41:53;;;;;;;19.45;4.32;;;18.40;95.30;;;;;;5006833;28;20045;-55
2023/05/25 09:44:18;;;;;;;16.80;4.35;;;18.30;95.80;;;;;;5007143;28;20476;-53
2023/05/25 09:46:44;;;;;;;22.13;4.32;;;18.20;95.60;;;;;;5007589;28;20046;-56
2023/05/25 09:49:10;;;;;;;17.30;4.10;;;17.80;95.30;;;;;;5008304;28;20393;-56
2023/05/25 09:51:37;;;;;;;18.08;4.43;;;17.40;95.40;;;;;;5007170;28;20124;-56
2023/05/25 09:54:03;;;;;;;17.63;4.60;;;17.30;95.40;;;;;;4996275;28;20089;-54
2023/05/25 09:56:31;;;;;;;21.95;4.30;;;17.00;95.80;;;;;;5005178;28;20061;-52
2023/05/25 09:58:57;;;;;;;18.58;4.18;;;16.90;96.10;;;;;;5005859;28;20049;-54
2023/05/25 10:01:23;;;;;;;16.60;4.65;;;16.80;96.10;;;;;;5004746;28;20420;-54
2023/05/25 10:03:55;;;;;;;19.23;4.22;;;16.70;95.90;;;;;;5005823;28;20038;-55
2023/05/25 10:06:30;;;;;;;16.90;4.35;;;16.70;95.80;;;;;;5005551;28;20076;-56
2023/05/25 10:08:56;;;;;;;15.07;3.53;;;16.60;95.60;;;;;;4987720;28;20045;-57
2023/05/25 10:11:23;;;;;;;19.73;4.68;;;16.70;95.70;;;;;;5005570;28;20103;-59
2023/05/25 10:13:50;;;;;;;16.48;4.13;;;17.00;95.70;;;;;;4988172;28;20058;-54
2023/05/25 10:16:17;;;;;;;14.63;4.10;;;17.10;95.60;;;;;;4987352;28;20054;-56
2023/05/25 10:19:11;;;;;;;19.38;4.00;;;17.00;95.30;;;;;;5005850;28;20046;-57
2023/05/25 10:21:38;;;;;;;21.17;4.30;;;17.00;95.40;;;;;;5004322;28;20123;-58
2023/05/25 10:24:17;;;;;;;18.63;4.65;;;17.00;96.10;;;;;;5006717;28;20050;-56
2023/05/25 10:26:48;;;;;;;18.23;4.45;;;17.00;95.80;;;;;;5007014;28;20076;-55
2023/05/25 10:29:16;;;;;;;20.77;5.03;;;16.80;96.00;;;;;;5005282;28;20049;-56
2023/05/25 10:31:42;;;;;;;22.95;4.80;;;16.50;96.20;;;;;;5004684;28;20057;-58
2023/05/25 10:34:08;;;;;;;20.73;4.88;;;16.40;96.60;;;;;;4987706;28;20050;-58
2023/05/25 10:36:36;;;;;;;24.70;5.53;;;16.50;96.70;;;;;;5005010;28;20294;-56
2023/05/25 10:39:06;;;;;;;26.33;4.97;;;16.40;96.90;;;;;;5005394;28;20044;-54
2023/05/25 10:41:31;;;;;;;26.70;6.28;;;16.30;97.00;;;;;;5005146;28;20053;-56
2023/05/25 10:43:57;;;;;;;21.52;5.50;;;16.50;97.00;;;;;;5005091;28;20380;-55
2023/05/25 10:46:23;;;;;;;20.42;5.60;;;16.90;96.70;;;;;;5003618;28;20049;-49
2023/05/25 10:48:50;;;;;;;19.20;5.70;;;17.10;96.40;;;;;;4991271;28;20057;-59
2023/05/25 10:51:19;;;;;;;18.65;4.50;;;17.30;96.30;;;;;;4985430;28;20050;-56
2023/05/25 10:53:46;;;;;;;14.32;4.30;;;17.30;95.70;;;;;;4985378;28;20042;-55
2023/05/25 10:56:13;;;;;;;17.85;4.95;;;17.30;95.70;;;;;;4985017;28;20046;-55
2023/05/25 10:58:45;;;;;;;20.70;5.13;;;17.30;95.80;;;;;;4967555;28;20050;-56
2023/05/25 11:01:14;;;;;;;27.95;5.20;;;17.30;95.50;;;;;;4984314;28;20050;-56
2023/05/25 11:04:09;;;;;;;21.27;5.10;;;17.30;95.50;;;;;;4985196;28;20509;-54
2023/05/25 11:06:43;;;;;;;24.58;5.13;;;17.30;95.00;;;;;;4985290;28;20066;-54
2023/05/25 11:09:26;;;;;;;22.55;5.13;;;17.30;95.70;;;;;;4986297;28;20058;-56
2023/05/25 11:11:54;;;;;;;25.10;5.43;;;17.40;95.50;;;;;;4986448;28;20082;-56
2023/05/25 11:14:20;;;;;;;19.42;5.40;;;17.40;95.70;;;;;;4986894;28;20182;-55
2023/05/25 11:17:13;;;;;;;22.38;5.10;;;17.30;95.80;;;;;;4986415;28;20046;-54
2023/05/25 11:19:47;;;;;;;21.25;5.18;;;17.30;95.40;;;;;;4986581;28;20480;-56
2023/05/25 11:22:20;;;;;;;19.30;4.63;;;17.20;95.60;;;;;;4968368;28;20046;-53
2023/05/25 11:24:52;;;;;;;25.58;5.72;;;17.10;95.60;;;;;;4988888;28;20037;-52
2023/05/25 11:27:27;;;;;;;19.73;4.82;;;17.00;95.30;;;;;;5000797;28;20080;-56
2023/05/25 11:29:55;;;;;;;24.33;4.70;;;17.00;95.10;;;;;;4995498;28;20061;-56
2023/05/25 11:32:21;;;;;;;21.02;4.78;;;17.00;95.20;;;;;;4992817;28;20084;-56
2023/05/25 11:34:47;;;;;;;24.60;4.75;;;17.10;95.30;;;;;;4992949;28;20061;-57
2023/05/25 11:37:20;;;;;;;19.30;5.30;;;17.20;95.10;;;;;;4992915;28;20803;-56
2023/05/25 11:39:49;;;;;;;19.00;6.00;;;17.30;95.00;;;;;;4997257;28;20056;-54
2023/05/25 11:42:16;;;;;;;21.33;5.22;;;17.30;95.00;;;;;;4996658;28;20085;-57
2023/05/25 11:44:42;;;;;;;18.33;4.68;;;17.40;95.00;;;;;;4983365;28;20408;-57
2023/05/25 11:47:13;;;;;;;18.70;4.78;;;17.50;95.30;;;;;;4967844;28;20042;-56
2023/05/25 11:49:44;;;;;;;19.98;5.07;;;17.50;95.10;;;;;;5004659;28;20060;-53
2023/05/25 11:52:12;;;;;;;14.27;4.63;;;17.70;95.00;;;;;;4986384;28;20048;-53
2023/05/25 11:54:40;;;;;;;17.08;4.43;;;18.10;94.80;;;;;;5004267;28;20099;-56
2023/05/25 11:57:23;;;;;;;19.00;5.53;;;18.30;94.70;;;;;;4987378;28;20064;-55
2023/05/25 11:59:53;;;;;;;18.27;5.03;;;18.50;94.40;;;;;;5007333;28;20115;-57
2023/05/25 12:02:20;;;;;;;23.75;5.28;;;18.50;94.60;;;;;;5008190;28;20049;-56
2023/05/25 12:04:55;;;;;;;14.57;4.53;;;18.40;94.10;;;;;;5008057;28;20050;-58
2023/05/25 12:07:21;;;;;;;19.77;5.10;;;18.40;94.00;;;;;;4990396;28;20038;-58
2023/05/25 12:09:47;;;;;;;19.45;5.03;;;18.30;94.40;;;;;;5000973;28;20085;-52
2023/05/25 12:12:13;;;;;;;18.77;4.82;;;18.20;94.50;;;;;;4997958;28;20078;-52
2023/05/25 12:14:49;;;;;;;20.90;5.18;;;18.20;94.70;;;;;;4997639;28;20427;-53
2023/05/25 12:17:16;;;;;;;16.05;4.32;;;18.10;94.20;;;;;;4981973;28;20048;-51
2023/05/25 12:19:42;;;;;;;21.70;5.18;;;18.20;94.70;;;;;;4995922;28;20057;-53
2023/05/25 12:22:10;;;;;;;22.75;4.40;;;18.30;95.00;;;;;;4994510;28;20041;-54
2023/05/25 12:24:36;;;;;;;27.92;5.05;;;18.20;95.10;;;;;;5006794;28;20050;-54
2023/05/25 12:27:04;;;;;;;16.25;3.92;;;18.10;94.90;;;;;;5005055;28;20443;-54
2023/05/25 12:29:30;;;;;;;21.35;4.90;;;18.10;94.80;;;;;;5004104;28;20663;-53
2023/05/25 12:32:03;;;;;;;19.58;4.60;;;18.00;95.10;;;;;;5004843;28;20081;-53
2023/05/25 12:34:28;;;;;;;17.98;4.78;;;18.20;94.70;;;;;;5005685;28;20045;-54
2023/05/25 12:36:55;;;;;;;17.95;4.63;;;18.30;94.80;;;;;;5004994;28;20085;-54
2023/05/25 12:39:30;;;;;;;20.58;5.30;;;18.30;95.10;;;;;;5009358;28;20045;-52
2023/05/25 12:41:58;;;;;;;21.23;5.25;;;18.10;93.50;;;;;;5007889;28;20063;-53